createdAt,value
2018-09-21T00:02:07.705Z,6.23
2018-09-21T00:05:15.528Z,5.77
2018-09-21T00:08:19.809Z,6.00
2018-09-21T00:11:24.052Z,6.00
2018-09-21T00:14:28.309Z,5.60
2018-09-21T00:17:32.555Z,5.70
2018-09-21T00:20:36.825Z,5.37
2018-09-21T00:23:41.074Z,5.37
2018-09-21T00:26:45.328Z,5.10
2018-09-21T00:29:49.576Z,5.53
2018-09-21T00:32:53.828Z,5.03
2018-09-21T00:35:58.098Z,4.30
2018-09-21T00:39:02.350Z,5.00
2018-09-21T00:42:06.599Z,5.20
2018-09-21T00:45:10.837Z,5.27
2018-09-21T00:48:15.114Z,5.17
2018-09-21T00:51:19.397Z,4.77
2018-09-21T00:54:23.670Z,5.37
2018-09-21T00:57:27.955Z,5.40
2018-09-21T01:00:32.224Z,5.30
2018-09-21T01:03:36.469Z,4.97
2018-09-21T01:06:40.767Z,5.00
2018-09-21T01:09:45.319Z,4.73
2018-09-21T01:12:49.769Z,4.60
2018-09-21T01:15:54.012Z,4.37
2018-09-21T01:18:58.310Z,4.93
2018-09-21T01:22:02.689Z,4.63
2018-09-21T01:25:07.001Z,5.00
2018-09-21T01:28:11.251Z,4.87
2018-09-21T01:31:15.508Z,4.43
2018-09-21T01:34:19.801Z,4.67
2018-09-21T01:37:24.083Z,4.43
2018-09-21T01:40:28.352Z,4.60
2018-09-21T01:43:32.605Z,4.10
2018-09-21T01:46:36.873Z,3.97
2018-09-21T01:49:41.138Z,4.53
2018-09-21T01:52:45.410Z,4.33
2018-09-21T01:55:49.648Z,4.23
2018-09-21T01:58:53.913Z,4.33
2018-09-21T02:01:58.178Z,4.57
2018-09-21T02:05:02.447Z,3.63
2018-09-21T02:08:06.766Z,4.60
2018-09-21T02:11:11.055Z,4.47
2018-09-21T02:14:15.320Z,5.10
2018-09-21T02:17:19.712Z,4.13
2018-09-21T02:20:23.971Z,4.50
2018-09-21T02:23:28.237Z,5.13
2018-09-21T02:26:32.497Z,5.17
2018-09-21T02:29:36.739Z,5.20
2018-09-21T02:32:41.042Z,5.07
2018-09-21T02:35:45.265Z,5.10
2018-09-21T02:38:49.542Z,5.03
2018-09-21T02:41:53.777Z,5.07
2018-09-21T02:44:58.044Z,4.37
2018-09-21T02:48:02.361Z,4.30
2018-09-21T02:51:06.612Z,5.47
2018-09-21T02:54:10.850Z,4.93
2018-09-21T02:57:15.112Z,5.00
2018-09-21T03:00:19.485Z,5.20
2018-09-21T03:03:23.672Z,4.67
2018-09-21T03:06:27.913Z,4.73
2018-09-21T03:09:32.197Z,4.40
2018-09-21T03:12:36.456Z,4.73
2018-09-21T03:15:40.721Z,4.80
2018-09-21T03:18:45.002Z,4.90
2018-09-21T03:21:49.282Z,4.77
2018-09-21T03:24:53.524Z,4.53
2018-09-21T03:27:57.799Z,4.40
2018-09-21T03:31:02.087Z,4.10
2018-09-21T03:34:06.345Z,5.10
2018-09-21T03:37:10.630Z,4.73
2018-09-21T03:40:14.924Z,4.87
2018-09-21T03:43:19.176Z,4.90
2018-09-21T03:46:23.438Z,4.43
2018-09-21T03:49:27.673Z,5.57
2018-09-21T03:52:31.937Z,4.23
2018-09-21T03:55:36.176Z,4.17
2018-09-21T03:58:40.446Z,4.83
2018-09-21T04:01:44.718Z,4.83
2018-09-21T04:04:49.117Z,4.67
2018-09-21T04:07:53.581Z,4.77
2018-09-21T04:10:57.870Z,5.53
2018-09-21T04:14:02.122Z,5.07
2018-09-21T04:17:06.535Z,5.20
2018-09-21T04:20:10.785Z,4.73
2018-09-21T04:23:15.044Z,5.30
2018-09-21T04:26:19.323Z,4.43
2018-09-21T04:29:23.609Z,4.80
2018-09-21T04:32:27.861Z,5.57
2018-09-21T04:35:32.137Z,4.67
2018-09-21T04:38:36.390Z,5.10
2018-09-21T04:41:40.780Z,4.17
2018-09-21T04:44:45.017Z,4.70
2018-09-21T04:47:49.440Z,4.57
2018-09-21T04:50:53.683Z,4.70
2018-09-21T04:53:57.933Z,4.80
2018-09-21T04:57:02.190Z,4.10
2018-09-21T05:00:07.769Z,4.47
2018-09-21T05:03:12.464Z,4.63
2018-09-21T05:06:16.701Z,4.60
2018-09-21T05:09:21.017Z,4.37
2018-09-21T05:12:25.301Z,4.10
2018-09-21T05:15:29.553Z,4.50
2018-09-21T05:18:33.775Z,4.20
2018-09-21T05:21:38.049Z,4.33
2018-09-21T05:24:42.296Z,4.63
2018-09-21T05:27:46.569Z,4.07
2018-09-21T05:30:51.589Z,3.97
2018-09-21T05:33:55.882Z,3.73
2018-09-21T05:37:00.090Z,4.13
2018-09-21T05:40:04.572Z,4.90
2018-09-21T05:43:08.827Z,3.87
2018-09-21T05:46:13.094Z,4.30
2018-09-21T05:49:17.370Z,4.07
2018-09-21T05:52:21.640Z,4.43
2018-09-21T05:55:25.874Z,4.87
2018-09-21T05:58:30.149Z,4.23
2018-09-21T06:01:34.407Z,3.97
2018-09-21T06:04:38.682Z,4.60
2018-09-21T06:07:42.973Z,4.53
2018-09-21T06:10:47.164Z,3.70
2018-09-21T06:13:51.509Z,4.47
2018-09-21T06:16:55.717Z,4.50
2018-09-21T06:20:11.868Z,4.50
2018-09-21T06:23:04.395Z,4.17
2018-09-21T06:26:09.353Z,4.03
2018-09-21T06:29:13.605Z,3.70
2018-09-21T06:32:17.889Z,4.27
2018-09-21T06:35:22.169Z,4.00
2018-09-21T06:38:26.429Z,4.27
2018-09-21T06:41:30.732Z,4.40
2018-09-21T06:44:34.994Z,4.53
2018-09-21T06:47:39.274Z,3.83
2018-09-21T06:50:43.545Z,3.90
2018-09-21T06:53:47.800Z,4.23
2018-09-21T06:56:52.020Z,4.60
2018-09-21T06:59:56.303Z,4.10
2018-09-21T07:03:00.556Z,4.43
2018-09-21T07:06:04.787Z,4.27
2018-09-21T07:09:12.797Z,4.20
2018-09-21T07:12:17.118Z,4.20
2018-09-21T07:15:21.377Z,4.30
2018-09-21T07:18:26.425Z,4.07
2018-09-21T07:21:30.669Z,3.97
2018-09-21T07:24:34.958Z,3.70
2018-09-21T07:27:39.224Z,4.47
2018-09-21T07:30:43.546Z,4.10
2018-09-21T07:33:47.884Z,4.07
2018-09-21T07:36:52.184Z,4.63
2018-09-21T07:39:56.466Z,4.77
2018-09-21T07:43:00.849Z,4.50
2018-09-21T07:46:05.097Z,4.20
2018-09-21T07:49:10.564Z,4.03
2018-09-21T07:52:14.964Z,3.90
2018-09-21T07:55:21.219Z,3.80
2018-09-21T07:58:25.553Z,4.00
2018-09-21T08:01:29.845Z,4.13
2018-09-21T08:04:34.124Z,4.03
2018-09-21T08:07:38.407Z,4.47
2018-09-21T08:10:42.725Z,3.80
2018-09-21T08:13:47.026Z,3.90
2018-09-21T08:16:51.360Z,4.20
2018-09-21T08:19:55.664Z,3.60
2018-09-21T08:22:59.979Z,4.73
2018-09-21T08:26:04.331Z,3.60
2018-09-21T08:29:08.679Z,3.70
2018-09-21T08:32:13.357Z,3.60
2018-09-21T08:35:17.626Z,3.80
2018-09-21T08:38:21.888Z,4.30
2018-09-21T08:41:26.162Z,4.63
2018-09-21T08:44:30.388Z,4.83
2018-09-21T08:47:34.709Z,4.33
2018-09-21T08:50:38.952Z,5.07
2018-09-21T08:53:43.210Z,5.93
2018-09-21T08:56:47.483Z,6.97
2018-09-21T08:59:51.744Z,6.13
2018-09-21T09:02:56.036Z,6.70
2018-09-21T09:06:00.288Z,6.30
2018-09-21T09:09:07.412Z,6.93
2018-09-21T09:12:11.679Z,6.53
2018-09-21T09:15:15.973Z,7.27
2018-09-21T09:18:20.392Z,7.50
2018-09-21T09:21:24.897Z,6.57
2018-09-21T09:24:29.431Z,6.80
2018-09-21T09:27:33.716Z,7.80
2018-09-21T09:30:38.212Z,7.33
2018-09-21T09:33:42.512Z,4.27
2018-09-21T09:36:46.806Z,4.70
2018-09-21T09:39:51.922Z,5.20
2018-09-21T09:42:56.305Z,5.37
2018-09-21T09:46:00.626Z,5.87
2018-09-21T09:49:05.137Z,6.63
2018-09-21T09:52:09.313Z,6.60
2018-09-21T09:55:14.911Z,7.43
2018-09-21T09:58:19.182Z,6.97
2018-09-21T10:01:23.492Z,6.93
2018-09-21T10:04:27.813Z,7.00
2018-09-21T10:07:32.094Z,6.23
2018-09-21T10:10:36.465Z,6.07
2018-09-21T10:13:40.704Z,5.87
2018-09-21T10:16:44.991Z,5.20
2018-09-21T10:19:49.284Z,5.10
2018-09-21T10:22:53.569Z,5.07
2018-09-21T10:25:57.829Z,5.27
2018-09-21T10:29:02.118Z,7.50
2018-09-21T10:32:06.395Z,5.73
2018-09-21T10:35:10.672Z,5.20
2018-09-21T10:38:14.930Z,5.50
2018-09-21T10:41:19.197Z,4.63
2018-09-21T10:44:23.473Z,5.83
2018-09-21T10:47:27.733Z,4.50
2018-09-21T10:50:32.017Z,3.43
2018-09-21T10:53:36.453Z,3.93
2018-09-21T10:56:40.687Z,4.07
2018-09-21T10:59:44.969Z,3.80
2018-09-21T11:02:49.220Z,4.67
2018-09-21T11:05:53.485Z,4.53
2018-09-21T11:08:57.761Z,4.57
2018-09-21T11:12:02.014Z,4.47
2018-09-21T11:15:06.613Z,4.27
2018-09-21T11:18:10.933Z,4.33
2018-09-21T11:21:15.291Z,4.40
2018-09-21T11:24:19.693Z,3.23
2018-09-21T11:27:24.147Z,4.00
2018-09-21T11:30:28.421Z,4.47
2018-09-21T11:33:32.711Z,3.37
2018-09-21T11:36:37.008Z,3.50
2018-09-21T11:39:41.301Z,3.13
2018-09-21T11:42:45.920Z,2.93
2018-09-21T11:45:50.327Z,3.20
2018-09-21T11:48:54.631Z,2.60
2018-09-21T11:51:58.905Z,3.37
2018-09-21T11:55:03.207Z,3.00
2018-09-21T11:58:08.434Z,2.33
2018-09-21T12:01:12.738Z,2.33
2018-09-21T12:04:17.045Z,2.37
2018-09-21T12:07:21.305Z,2.17
2018-09-21T12:10:25.661Z,3.10
2018-09-21T12:13:30.790Z,2.70
2018-09-21T12:16:35.039Z,2.87
2018-09-21T12:19:39.402Z,2.10
2018-09-21T12:22:43.716Z,2.57
2018-09-21T12:25:48.023Z,2.20
2018-09-21T12:28:52.306Z,2.67
2018-09-21T12:31:56.697Z,3.03
2018-09-21T12:35:01.175Z,2.03
2018-09-21T12:38:05.637Z,2.70
2018-09-21T12:41:09.914Z,2.10
2018-09-21T12:44:16.320Z,2.40
2018-09-21T12:47:20.596Z,2.17
2018-09-21T12:50:24.935Z,2.37
2018-09-21T12:53:29.201Z,2.03
2018-09-21T12:56:33.510Z,2.37
2018-09-21T12:59:37.784Z,2.30
2018-09-21T13:02:42.116Z,1.40
2018-09-21T13:05:46.378Z,1.90
2018-09-21T13:08:50.701Z,2.30
2018-09-21T13:11:55.010Z,2.20
2018-09-21T13:14:59.317Z,2.43
2018-09-21T13:18:03.637Z,2.50
2018-09-21T13:21:07.915Z,2.40
2018-09-21T13:24:12.217Z,2.43
2018-09-21T13:27:16.531Z,2.07
2018-09-21T13:30:20.934Z,2.50
2018-09-21T13:33:25.193Z,2.53
2018-09-21T13:36:29.783Z,2.97
2018-09-21T13:39:34.084Z,3.27
2018-09-21T13:42:38.375Z,2.87
2018-09-21T13:45:42.682Z,2.30
2018-09-21T13:48:46.907Z,2.50
2018-09-21T13:51:51.245Z,2.20
2018-09-21T13:54:55.493Z,2.60
2018-09-21T13:57:59.791Z,2.50
2018-09-21T14:01:04.097Z,2.87
2018-09-21T14:04:08.373Z,2.67
2018-09-21T14:07:12.667Z,2.50
2018-09-21T14:10:16.987Z,3.13
2018-09-21T14:13:21.239Z,2.67
2018-09-21T14:16:25.513Z,2.80
2018-09-21T14:19:29.781Z,3.23
2018-09-21T14:22:34.056Z,3.23
2018-09-21T14:25:38.288Z,3.07
2018-09-21T14:28:42.576Z,3.03
2018-09-21T14:31:46.860Z,2.07
2018-09-21T14:34:51.124Z,1.87
2018-09-21T14:37:55.405Z,1.67
2018-09-21T14:40:59.741Z,1.50
2018-09-21T14:44:04.192Z,1.63
2018-09-21T14:47:08.437Z,1.67
2018-09-21T14:50:12.704Z,2.43
2018-09-21T14:53:17.017Z,2.03
2018-09-21T14:56:21.301Z,2.27
2018-09-21T14:59:25.593Z,2.33
2018-09-21T15:02:29.871Z,2.67
2018-09-21T15:05:34.145Z,4.63
2018-09-21T15:08:38.455Z,10.07
2018-09-21T15:11:42.747Z,5.40
2018-09-21T15:14:47.025Z,4.70
2018-09-21T15:17:51.300Z,2.37
2018-09-21T15:20:55.572Z,2.30
2018-09-21T15:23:59.855Z,2.47
2018-09-21T15:27:04.138Z,1.70
2018-09-21T15:30:08.413Z,2.93
2018-09-21T15:33:12.695Z,2.60
2018-09-21T15:36:16.989Z,2.60
2018-09-21T15:39:22.073Z,2.87
2018-09-21T15:42:27.462Z,2.00
2018-09-21T15:45:31.997Z,3.00
2018-09-21T15:48:36.390Z,2.73
2018-09-21T15:51:40.769Z,2.80
2018-09-21T15:54:45.081Z,3.43
2018-09-21T15:57:49.490Z,2.87
2018-09-21T16:00:53.767Z,3.17
2018-09-21T16:03:58.152Z,2.60
2018-09-21T16:07:02.507Z,2.40
2018-09-21T16:10:06.841Z,2.83
2018-09-21T16:13:11.129Z,2.17
2018-09-21T16:16:15.856Z,2.70
2018-09-21T16:19:20.125Z,2.53
2018-09-21T16:22:24.406Z,2.83
2018-09-21T16:25:28.683Z,2.60
2018-09-21T16:28:33.014Z,2.40
2018-09-21T16:31:37.284Z,2.10
2018-09-21T16:34:41.582Z,2.63
2018-09-21T16:37:45.852Z,1.90
2018-09-21T16:40:50.157Z,1.37
2018-09-21T16:43:54.433Z,2.07
2018-09-21T16:46:58.719Z,1.37
2018-09-21T16:50:02.998Z,1.90
2018-09-21T16:53:07.280Z,1.80
2018-09-21T16:56:11.573Z,1.80
2018-09-21T16:59:15.849Z,2.17
2018-09-21T17:02:20.144Z,1.83
2018-09-21T17:05:24.441Z,2.60
2018-09-21T17:08:28.751Z,3.10
2018-09-21T17:11:33.023Z,2.70
2018-09-21T17:14:37.316Z,2.80
2018-09-21T17:17:41.610Z,2.90
2018-09-21T17:20:45.901Z,2.20
2018-09-21T17:23:50.191Z,1.83
2018-09-21T17:26:54.499Z,2.40
2018-09-21T17:29:58.774Z,1.90
2018-09-21T17:33:03.084Z,2.07
2018-09-21T17:36:07.721Z,2.27
2018-09-21T17:39:13.199Z,2.00
2018-09-21T17:42:17.469Z,2.20
2018-09-21T17:45:21.774Z,1.50
2018-09-21T17:48:26.055Z,1.73
2018-09-21T17:51:30.346Z,1.10
2018-09-21T17:54:34.629Z,1.50
2018-09-21T17:57:39.205Z,1.70
2018-09-21T18:00:43.495Z,1.77
2018-09-21T18:03:48.343Z,1.40
2018-09-21T18:06:52.629Z,2.00
2018-09-21T18:09:56.902Z,1.60
2018-09-21T18:13:01.176Z,2.03
2018-09-21T18:16:05.500Z,1.70
2018-09-21T18:19:09.763Z,1.97
2018-09-21T18:22:14.083Z,2.00
2018-09-21T18:25:18.377Z,1.40
2018-09-21T18:28:22.665Z,1.83
2018-09-21T18:31:26.988Z,2.73
2018-09-21T18:34:31.267Z,1.90
2018-09-21T18:37:35.587Z,1.87
2018-09-21T18:40:39.845Z,1.60
2018-09-21T18:43:44.179Z,1.10
2018-09-21T18:46:48.945Z,2.67
2018-09-21T18:49:53.213Z,1.43
2018-09-21T18:52:57.515Z,1.10
2018-09-21T18:56:01.835Z,1.80
2018-09-21T18:59:06.130Z,3.10
2018-09-21T19:02:10.562Z,3.47
2018-09-21T19:05:14.859Z,3.07
2018-09-21T19:08:19.185Z,3.97
2018-09-21T19:11:23.436Z,3.13
2018-09-21T19:14:27.758Z,2.73
2018-09-21T19:17:32.020Z,2.67
2018-09-21T19:20:36.413Z,3.30
2018-09-21T19:23:40.703Z,1.93
2018-09-21T19:26:45.013Z,1.90
2018-09-21T19:29:49.287Z,1.93
2018-09-21T19:32:53.684Z,1.80
2018-09-21T19:35:57.986Z,1.70
2018-09-21T19:39:02.256Z,2.10
2018-09-21T19:42:06.563Z,2.07
2018-09-21T19:45:11.039Z,2.20
2018-09-21T19:48:15.225Z,2.80
2018-09-21T19:51:19.496Z,2.20
2018-09-21T19:54:23.799Z,2.40
2018-09-21T19:57:28.075Z,2.53
2018-09-21T20:00:32.563Z,2.80
2018-09-21T20:03:36.861Z,2.70
2018-09-21T20:06:41.156Z,3.77
2018-09-21T20:09:45.438Z,3.60
2018-09-21T20:12:49.731Z,2.93
2018-09-21T20:15:54.017Z,2.77
2018-09-21T20:18:58.337Z,2.80
2018-09-21T20:22:02.639Z,2.63
2018-09-21T20:25:06.991Z,2.83
2018-09-21T20:28:11.251Z,1.50
2018-09-21T20:31:20.929Z,2.57
2018-09-21T20:34:25.198Z,1.90
2018-09-21T20:37:29.505Z,2.40
2018-09-21T20:40:33.776Z,2.90
2018-09-21T20:43:38.029Z,2.77
2018-09-21T20:46:42.332Z,5.50
2018-09-21T20:49:46.646Z,2.40
2018-09-21T20:52:50.913Z,2.30
2018-09-21T20:55:55.204Z,2.57
2018-09-21T20:58:59.540Z,1.83
2018-09-21T21:02:03.777Z,2.40
2018-09-21T21:05:08.075Z,1.67
2018-09-21T21:08:12.343Z,2.33
2018-09-21T21:11:16.629Z,2.23
2018-09-21T21:14:21.704Z,2.30
2018-09-21T21:17:25.999Z,1.50
2018-09-21T21:20:30.290Z,2.60
2018-09-21T21:23:34.571Z,2.43
2018-09-21T21:26:38.861Z,1.87
2018-09-21T21:29:43.130Z,2.60
2018-09-21T21:32:47.392Z,2.20
2018-09-21T21:35:51.653Z,1.80
2018-09-21T21:38:55.923Z,2.10
2018-09-21T21:42:00.669Z,1.50
2018-09-21T21:45:05.026Z,2.50
2018-09-21T21:48:09.306Z,1.50
2018-09-21T21:51:13.638Z,1.20
2018-09-21T21:54:17.938Z,1.10
2018-09-21T21:57:22.222Z,1.50
2018-09-21T22:00:30.561Z,1.53
2018-09-21T22:03:34.868Z,1.20
2018-09-21T22:06:39.149Z,1.40
2018-09-21T22:09:43.445Z,1.47
2018-09-21T22:12:52.913Z,1.23
2018-09-21T22:15:57.168Z,1.37
2018-09-21T22:19:01.423Z,1.97
2018-09-21T22:22:05.702Z,1.23
2018-09-21T22:25:10.296Z,1.40
2018-09-21T22:28:14.770Z,1.27
2018-09-21T22:31:19.007Z,1.17
2018-09-21T22:34:23.280Z,1.07
2018-09-21T22:37:28.784Z,1.23
2018-09-21T22:40:33.045Z,1.33
2018-09-21T22:43:37.283Z,1.20
2018-09-21T22:46:41.532Z,1.73
2018-09-21T22:49:46.378Z,1.40
2018-09-21T22:52:53.429Z,1.40
2018-09-21T22:55:57.689Z,1.20
2018-09-21T22:59:02.577Z,1.43
2018-09-21T23:02:06.848Z,1.13
2018-09-21T23:05:11.102Z,1.10
2018-09-21T23:08:18.816Z,0.97
2018-09-21T23:11:27.153Z,1.63
2018-09-21T23:14:31.547Z,1.53
2018-09-21T23:17:39.795Z,1.13
2018-09-21T23:20:45.561Z,1.10
2018-09-21T23:23:51.043Z,1.17
2018-09-21T23:26:57.593Z,1.30
2018-09-21T23:30:02.493Z,1.50
2018-09-21T23:33:06.952Z,1.30
2018-09-21T23:36:11.239Z,1.30
2018-09-21T23:39:16.410Z,1.50
2018-09-21T23:42:20.673Z,1.07
2018-09-21T23:45:24.929Z,1.23
2018-09-21T23:48:29.232Z,1.30
2018-09-21T23:51:33.505Z,1.70
2018-09-21T23:54:37.768Z,1.73
2018-09-21T23:57:42.030Z,1.47
